createdAt,value
2019-02-14T00:00:07.412Z,83.40
2019-02-14T00:02:35.235Z,83.70
2019-02-14T00:05:03.458Z,85.30
2019-02-14T00:07:31.393Z,85.40
2019-02-14T00:09:59.202Z,83.60
2019-02-14T00:12:27.063Z,83.40
2019-02-14T00:14:54.911Z,84.30
2019-02-14T00:17:22.774Z,84.20
2019-02-14T00:19:50.549Z,83.30
2019-02-14T00:22:18.360Z,83.80
2019-02-14T00:24:46.172Z,83.30
2019-02-14T00:27:14.066Z,83.50
2019-02-14T00:29:41.914Z,83.40
2019-02-14T00:32:09.667Z,83.30
2019-02-14T00:34:37.524Z,83.30
2019-02-14T00:37:05.307Z,83.20
2019-02-14T00:39:33.112Z,83.20
2019-02-14T00:42:00.888Z,83.30
2019-02-14T00:44:28.899Z,84.20
2019-02-14T00:46:56.695Z,84.70
2019-02-14T00:49:24.516Z,85.80
2019-02-14T00:51:52.326Z,85.20
2019-02-14T00:54:20.182Z,84.80
2019-02-14T00:56:48.018Z,83.80
2019-02-14T00:59:15.852Z,83.20
2019-02-14T01:01:43.643Z,83.20
2019-02-14T01:04:11.474Z,83.60
2019-02-14T01:06:39.255Z,82.50
2019-02-14T01:09:07.090Z,82.50
2019-02-14T01:11:34.939Z,83.10
2019-02-14T01:14:02.812Z,84.10
2019-02-14T01:16:30.693Z,83.10
2019-02-14T01:18:58.450Z,83.50
2019-02-14T01:21:26.282Z,83.50
2019-02-14T01:23:54.058Z,84.70
2019-02-14T01:26:21.834Z,83.70
2019-02-14T01:28:49.811Z,83.70
2019-02-14T01:31:17.632Z,83.40
2019-02-14T01:33:45.419Z,83.80
2019-02-14T01:36:32.739Z,83.40
2019-02-14T01:39:00.526Z,83.50
2019-02-14T01:41:28.324Z,82.40
2019-02-14T01:43:56.122Z,83.50
2019-02-14T01:46:23.907Z,83.10
2019-02-14T01:48:51.716Z,83.50
2019-02-14T01:51:19.543Z,84.00
2019-02-14T01:53:47.344Z,85.10
2019-02-14T01:56:15.195Z,85.20
2019-02-14T01:58:42.979Z,86.60
2019-02-14T02:01:10.788Z,85.60
2019-02-14T02:03:38.532Z,86.00
2019-02-14T02:06:06.326Z,85.50
2019-02-14T02:08:34.242Z,84.30
2019-02-14T02:11:02.868Z,85.10
2019-02-14T02:13:30.695Z,86.00
2019-02-14T02:15:58.463Z,85.30
2019-02-14T02:18:26.699Z,84.60
2019-02-14T02:20:54.646Z,85.10
2019-02-14T02:23:22.473Z,85.00
2019-02-14T02:25:50.321Z,84.00
2019-02-14T02:28:18.202Z,85.30
2019-02-14T02:30:46.032Z,84.80
2019-02-14T02:33:13.813Z,85.40
2019-02-14T02:35:41.652Z,84.80
2019-02-14T02:38:09.469Z,85.00
2019-02-14T02:40:37.290Z,85.80
2019-02-14T02:43:05.089Z,85.20
2019-02-14T02:45:32.939Z,86.30
2019-02-14T02:48:00.775Z,85.70
2019-02-14T02:50:28.596Z,86.40
2019-02-14T02:52:57.463Z,86.90
2019-02-14T02:55:25.260Z,86.40
2019-02-14T02:57:53.061Z,86.40
2019-02-14T03:00:20.876Z,85.80
2019-02-14T03:02:48.639Z,85.50
2019-02-14T03:05:16.436Z,86.40
2019-02-14T03:07:44.182Z,86.40
2019-02-14T03:10:12.361Z,86.30
2019-02-14T03:12:40.155Z,86.40
2019-02-14T03:15:09.378Z,85.50
2019-02-14T03:17:37.159Z,86.10
2019-02-14T03:20:07.069Z,85.60
2019-02-14T03:22:34.888Z,85.10
2019-02-14T03:25:02.801Z,84.50
2019-02-14T03:27:32.444Z,83.90
2019-02-14T03:30:00.405Z,83.90
2019-02-14T03:32:28.220Z,83.20
2019-02-14T03:34:56.021Z,83.60
2019-02-14T03:37:23.915Z,83.10
2019-02-14T03:39:51.732Z,84.40
2019-02-14T03:42:19.533Z,84.50
2019-02-14T03:44:47.349Z,84.00
2019-02-14T03:47:15.279Z,83.30
2019-02-14T03:49:43.130Z,85.00
2019-02-14T03:52:10.890Z,85.30
2019-02-14T03:54:38.730Z,84.50
2019-02-14T03:57:06.714Z,84.30
2019-02-14T03:59:34.487Z,84.70
2019-02-14T04:02:02.289Z,85.40
2019-02-14T04:04:30.139Z,85.90
2019-02-14T04:06:58.039Z,84.80
2019-02-14T04:09:25.813Z,84.20
2019-02-14T04:11:53.585Z,84.00
2019-02-14T04:14:21.403Z,83.70
2019-02-14T04:16:49.390Z,83.40
2019-02-14T04:19:17.217Z,83.00
2019-02-14T04:21:45.010Z,83.00
2019-02-14T04:24:12.843Z,83.00
2019-02-14T04:26:40.665Z,83.10
2019-02-14T04:29:08.486Z,83.10
2019-02-14T04:31:36.275Z,82.90
2019-02-14T04:34:04.114Z,83.00
2019-02-14T04:36:35.980Z,83.20
2019-02-14T04:39:01.826Z,82.90
2019-02-14T04:41:29.598Z,83.10
2019-02-14T04:43:57.365Z,83.50
2019-02-14T04:46:25.161Z,82.80
2019-02-14T04:48:52.965Z,83.80
2019-02-14T04:51:23.916Z,83.70
2019-02-14T04:53:51.651Z,83.10
2019-02-14T04:56:19.918Z,83.50
2019-02-14T04:58:47.742Z,84.70
2019-02-14T05:01:15.537Z,83.70
2019-02-14T05:03:43.355Z,82.90
2019-02-14T05:06:11.178Z,82.80
2019-02-14T05:08:38.993Z,82.90
2019-02-14T05:11:06.823Z,82.70
2019-02-14T05:13:34.749Z,83.10
2019-02-14T05:16:02.846Z,82.70
2019-02-14T05:18:35.867Z,82.60
2019-02-14T05:21:03.672Z,82.60
2019-02-14T05:23:31.518Z,83.20
2019-02-14T05:25:59.314Z,82.60
2019-02-14T05:28:28.448Z,82.50
2019-02-14T05:30:56.555Z,82.50
2019-02-14T05:33:26.736Z,82.50
2019-02-14T05:35:54.905Z,82.40
2019-02-14T05:38:22.744Z,82.40
2019-02-14T05:40:50.537Z,82.70
2019-02-14T05:43:18.350Z,84.90
2019-02-14T05:45:46.110Z,85.40
2019-02-14T05:48:19.251Z,85.50
2019-02-14T05:50:47.027Z,85.00
2019-02-14T05:53:19.443Z,84.00
2019-02-14T05:55:47.352Z,84.50
2019-02-14T05:58:34.523Z,84.90
2019-02-14T06:01:02.563Z,84.50
2019-02-14T06:03:30.403Z,85.40
2019-02-14T06:05:58.239Z,85.80
2019-02-14T06:08:26.080Z,86.80
2019-02-14T06:10:53.913Z,86.50
2019-02-14T06:13:21.715Z,86.30
2019-02-14T06:15:51.343Z,86.20
2019-02-14T06:18:19.470Z,85.80
2019-02-14T06:20:47.284Z,86.20
2019-02-14T06:23:15.095Z,86.20
2019-02-14T06:25:45.939Z,87.40
2019-02-14T06:28:17.485Z,84.90
2019-02-14T06:30:45.363Z,85.60
2019-02-14T06:33:13.196Z,86.40
2019-02-14T06:35:40.980Z,87.10
2019-02-14T06:38:08.835Z,87.10
2019-02-14T06:40:36.664Z,86.30
2019-02-14T06:43:04.503Z,86.80
2019-02-14T06:45:32.304Z,86.20
2019-02-14T06:48:00.097Z,86.00
2019-02-14T06:50:34.603Z,84.50
2019-02-14T06:52:57.509Z,84.80
2019-02-14T06:55:26.639Z,84.50
2019-02-14T06:57:54.402Z,85.20
2019-02-14T07:00:22.227Z,85.50
2019-02-14T07:02:50.023Z,84.40
2019-02-14T07:05:17.895Z,83.50
2019-02-14T07:07:45.692Z,83.90
2019-02-14T07:10:13.551Z,84.80
2019-02-14T07:12:41.352Z,83.40
2019-02-14T07:15:10.169Z,81.70
2019-02-14T07:17:43.260Z,82.90
2019-02-14T07:20:12.787Z,81.50
2019-02-14T07:22:40.655Z,82.60
2019-02-14T07:25:09.920Z,82.90
2019-02-14T07:27:37.694Z,83.30
2019-02-14T07:30:10.716Z,83.00
2019-02-14T07:32:38.541Z,81.60
2019-02-14T07:35:25.894Z,79.90
2019-02-14T07:37:53.967Z,79.00
2019-02-14T07:40:21.825Z,72.40
2019-02-14T07:42:49.660Z,65.00
2019-02-14T07:45:17.489Z,61.10
2019-02-14T07:47:50.547Z,60.30
2019-02-14T07:50:18.359Z,61.20
2019-02-14T07:52:46.165Z,62.20
2019-02-14T07:55:14.506Z,58.90
2019-02-14T07:57:47.691Z,53.60
2019-02-14T08:00:15.518Z,50.70
2019-02-14T08:02:43.349Z,49.50
2019-02-14T08:05:11.288Z,49.50
2019-02-14T08:07:39.085Z,48.40
2019-02-14T08:10:09.032Z,45.00
2019-02-14T08:12:36.848Z,45.80
2019-02-14T08:15:07.132Z,47.50
2019-02-14T08:17:35.049Z,50.40
2019-02-14T08:20:03.459Z,52.00
2019-02-14T08:22:31.580Z,54.40
2019-02-14T08:24:59.442Z,55.70
2019-02-14T08:27:57.815Z,57.20
2019-02-14T08:30:25.626Z,58.90
2019-02-14T08:32:53.377Z,59.90
2019-02-14T08:35:21.484Z,61.50
2019-02-14T08:37:49.397Z,62.30
2019-02-14T08:40:21.315Z,64.80
2019-02-14T08:42:49.072Z,64.80
2019-02-14T08:45:16.967Z,64.80
2019-02-14T08:47:45.116Z,64.80
2019-02-14T08:50:12.904Z,64.90
2019-02-14T08:52:40.724Z,64.90
2019-02-14T08:55:10.089Z,64.80
2019-02-14T08:57:38.270Z,64.80
2019-02-14T09:00:08.877Z,65.20
2019-02-14T09:02:36.664Z,66.90
2019-02-14T09:05:04.540Z,67.90
2019-02-14T09:07:37.694Z,68.00
2019-02-14T09:10:07.976Z,67.60
2019-02-14T09:12:35.810Z,67.10
2019-02-14T09:15:04.933Z,66.50
2019-02-14T09:17:42.952Z,66.80
2019-02-14T09:20:11.948Z,66.90
2019-02-14T09:22:39.746Z,66.30
2019-02-14T09:25:07.852Z,66.80
2019-02-14T09:27:35.708Z,67.10
2019-02-14T09:30:03.943Z,66.70
2019-02-14T09:32:31.778Z,65.30
2019-02-14T09:35:00.311Z,65.20
2019-02-14T09:37:28.215Z,65.30
2019-02-14T09:39:55.966Z,65.40
2019-02-14T09:42:23.860Z,65.30
2019-02-14T09:44:51.611Z,65.40
2019-02-14T09:47:19.417Z,65.90
2019-02-14T09:49:47.232Z,63.70
2019-02-14T09:52:14.990Z,63.40
2019-02-14T09:54:42.832Z,62.50
2019-02-14T09:57:10.788Z,62.30
2019-02-14T09:59:38.619Z,61.60
2019-02-14T10:02:06.405Z,61.30
2019-02-14T10:04:34.258Z,60.90
2019-02-14T10:07:07.064Z,60.80
2019-02-14T10:09:34.841Z,60.90
2019-02-14T10:12:02.576Z,61.20
2019-02-14T10:14:30.348Z,61.40
2019-02-14T10:16:58.397Z,61.10
2019-02-14T10:19:26.222Z,61.20
2019-02-14T10:21:54.034Z,61.30
2019-02-14T10:24:21.848Z,61.30
2019-02-14T10:26:49.700Z,62.00
2019-02-14T10:29:17.483Z,62.00
2019-02-14T10:31:45.271Z,61.20
2019-02-14T10:34:13.049Z,62.00
2019-02-14T10:36:40.836Z,60.80
2019-02-14T10:39:08.746Z,60.60
2019-02-14T10:41:36.565Z,60.40
2019-02-14T10:44:04.381Z,61.40
2019-02-14T10:46:32.236Z,61.20
2019-02-14T10:49:00.063Z,61.00
2019-02-14T10:51:27.904Z,61.00
2019-02-14T10:54:15.436Z,61.00
2019-02-14T10:57:02.692Z,61.20
2019-02-14T10:59:30.518Z,60.80
2019-02-14T11:01:58.386Z,60.70
2019-02-14T11:04:26.313Z,61.10
2019-02-14T11:06:54.155Z,61.60
2019-02-14T11:09:21.968Z,60.40
2019-02-14T11:11:49.785Z,60.40
2019-02-14T11:14:17.609Z,58.40
2019-02-14T11:16:45.415Z,57.70
2019-02-14T11:19:13.241Z,57.10
2019-02-14T11:21:41.086Z,54.90
2019-02-14T11:24:08.855Z,53.20
2019-02-14T11:26:36.694Z,51.20
2019-02-14T11:29:04.543Z,49.30
2019-02-14T11:31:32.359Z,46.90
2019-02-14T11:34:00.194Z,46.10
2019-02-14T11:36:28.178Z,44.70
2019-02-14T11:38:56.033Z,43.80
2019-02-14T11:41:23.880Z,42.20
2019-02-14T11:43:51.727Z,40.40
2019-02-14T11:46:19.540Z,39.00
2019-02-14T11:48:48.018Z,37.70
2019-02-14T11:51:16.106Z,37.40
2019-02-14T11:53:43.898Z,38.20
2019-02-14T11:56:11.721Z,38.20
2019-02-14T11:58:44.685Z,38.70
2019-02-14T12:01:12.551Z,39.80
2019-02-14T12:03:40.368Z,40.50
2019-02-14T12:06:08.172Z,42.20
2019-02-14T12:08:36.048Z,44.50
2019-02-14T12:11:03.830Z,44.60
2019-02-14T12:13:31.645Z,45.20
2019-02-14T12:15:59.463Z,45.40
2019-02-14T12:18:27.374Z,45.80
2019-02-14T12:20:55.234Z,46.40
2019-02-14T12:23:23.032Z,47.40
2019-02-14T12:25:50.947Z,47.00
2019-02-14T12:28:18.745Z,46.60
2019-02-14T12:30:46.637Z,43.80
2019-02-14T12:33:15.215Z,42.70
2019-02-14T12:35:43.046Z,40.20
2019-02-14T12:38:12.473Z,40.50
2019-02-14T12:40:42.364Z,37.40
2019-02-14T12:43:10.187Z,36.00
2019-02-14T12:45:38.409Z,36.10
2019-02-14T12:48:06.230Z,35.10
2019-02-14T12:50:35.808Z,34.60
2019-02-14T12:53:03.788Z,34.10
2019-02-14T12:55:33.887Z,34.20
2019-02-14T12:58:01.805Z,33.50
2019-02-14T13:00:29.664Z,32.00
2019-02-14T13:02:57.544Z,33.10
2019-02-14T13:05:25.324Z,32.30
2019-02-14T13:07:53.134Z,32.40
2019-02-14T13:10:20.920Z,31.80
2019-02-14T13:12:49.934Z,32.80
2019-02-14T13:15:21.796Z,33.50
2019-02-14T13:17:49.732Z,34.00
2019-02-14T13:20:18.418Z,33.20
2019-02-14T13:22:46.227Z,33.20
2019-02-14T13:25:14.353Z,33.70
2019-02-14T13:27:42.184Z,33.90
2019-02-14T13:30:14.687Z,33.50
2019-02-14T13:32:42.497Z,32.70
2019-02-14T13:35:10.353Z,31.70
2019-02-14T13:37:39.953Z,30.70
2019-02-14T13:40:08.527Z,29.20
2019-02-14T13:42:36.422Z,28.80
2019-02-14T13:45:06.831Z,28.40
2019-02-14T13:47:34.639Z,26.70
2019-02-14T13:50:02.488Z,26.00
2019-02-14T13:52:30.619Z,25.80
2019-02-14T13:54:58.426Z,26.20
2019-02-14T13:57:26.252Z,24.50
2019-02-14T13:59:54.084Z,23.90
2019-02-14T14:02:21.910Z,25.80
2019-02-14T14:04:49.800Z,26.60
2019-02-14T14:07:22.903Z,27.70
2019-02-14T14:09:50.738Z,28.30
2019-02-14T14:12:18.507Z,29.70
2019-02-14T14:14:46.280Z,30.30
2019-02-14T14:17:14.215Z,31.00
2019-02-14T14:19:42.062Z,32.70
2019-02-14T14:22:09.869Z,33.00
2019-02-14T14:24:37.744Z,33.60
2019-02-14T14:27:10.857Z,34.70
2019-02-14T14:29:38.770Z,35.40
2019-02-14T14:32:06.592Z,35.80
2019-02-14T14:34:34.419Z,36.00
2019-02-14T14:37:02.219Z,36.90
2019-02-14T14:39:30.069Z,39.00
2019-02-14T14:41:58.005Z,38.50
2019-02-14T14:44:39.854Z,38.90
2019-02-14T14:47:38.132Z,38.10
2019-02-14T14:50:06.020Z,41.00
2019-02-14T14:52:33.861Z,42.30
2019-02-14T14:55:01.717Z,43.30
2019-02-14T14:57:32.185Z,43.30
2019-02-14T15:00:00.065Z,42.50
2019-02-14T15:02:27.841Z,41.00
2019-02-14T15:04:55.686Z,39.80
2019-02-14T15:07:28.513Z,39.40
2019-02-14T15:09:57.785Z,38.80
2019-02-14T15:12:25.755Z,37.70
2019-02-14T15:14:53.604Z,36.30
2019-02-14T15:17:22.035Z,36.70
2019-02-14T15:19:50.106Z,36.90
2019-02-14T15:22:17.959Z,37.40
2019-02-14T15:24:46.050Z,37.70
2019-02-14T15:27:14.000Z,37.40
2019-02-14T15:29:41.877Z,37.20
2019-02-14T15:32:09.693Z,37.40
2019-02-14T15:34:37.564Z,37.60
2019-02-14T15:37:05.407Z,37.50
2019-02-14T15:39:33.212Z,38.00
2019-02-14T15:42:01.000Z,38.10
2019-02-14T15:44:28.826Z,39.50
2019-02-14T15:47:01.732Z,39.20
2019-02-14T15:49:29.583Z,39.00
2019-02-14T15:51:57.431Z,41.00
2019-02-14T15:54:25.265Z,43.80
2019-02-14T15:56:53.649Z,45.70
2019-02-14T15:59:22.768Z,47.10
2019-02-14T16:01:50.572Z,48.70
2019-02-14T16:04:18.373Z,48.50
2019-02-14T16:06:52.652Z,49.40
2019-02-14T16:09:22.185Z,50.70
2019-02-14T16:11:50.028Z,51.20
2019-02-14T16:14:19.197Z,53.00
2019-02-14T16:16:47.692Z,54.80
2019-02-14T16:19:15.514Z,54.40
2019-02-14T16:21:43.280Z,53.90
2019-02-14T16:24:11.110Z,54.30
2019-02-14T16:27:09.547Z,54.90
2019-02-14T16:29:37.413Z,55.30
2019-02-14T16:32:05.231Z,55.70
2019-02-14T16:34:33.108Z,56.50
2019-02-14T16:37:06.392Z,57.00
2019-02-14T16:39:34.191Z,57.20
2019-02-14T16:42:01.970Z,57.20
2019-02-14T16:44:29.761Z,57.10
2019-02-14T16:46:57.755Z,58.10
2019-02-14T16:49:45.198Z,59.40
2019-02-14T16:52:13.046Z,61.60
2019-02-14T16:54:40.915Z,61.60
2019-02-14T16:57:08.736Z,61.80
2019-02-14T16:59:36.536Z,61.70
2019-02-14T17:02:04.373Z,62.70
2019-02-14T17:04:32.226Z,62.70
2019-02-14T17:07:00.059Z,63.20
2019-02-14T17:09:27.863Z,63.80
2019-02-14T17:11:55.953Z,63.70
2019-02-14T17:14:23.746Z,63.70
2019-02-14T17:16:51.966Z,64.80
2019-02-14T17:19:19.759Z,65.60
2019-02-14T17:21:47.611Z,66.50
2019-02-14T17:24:15.377Z,66.50
2019-02-14T17:26:43.183Z,66.40
2019-02-14T17:29:10.987Z,66.30
2019-02-14T17:31:39.089Z,66.30
2019-02-14T17:34:06.909Z,67.20
2019-02-14T17:36:34.708Z,69.20
2019-02-14T17:39:03.391Z,68.90
2019-02-14T17:41:31.259Z,69.30
2019-02-14T17:43:59.114Z,68.70
2019-02-14T17:46:26.955Z,68.30
2019-02-14T17:48:54.749Z,69.60
2019-02-14T17:51:22.671Z,69.70
2019-02-14T17:53:50.536Z,71.00
2019-02-14T17:56:18.548Z,71.30
2019-02-14T17:58:51.559Z,71.50
2019-02-14T18:01:19.392Z,71.80
2019-02-14T18:03:47.336Z,71.30
2019-02-14T18:06:15.160Z,72.00
2019-02-14T18:08:43.233Z,72.90
2019-02-14T18:11:11.097Z,73.90
2019-02-14T18:13:38.871Z,73.10
2019-02-14T18:16:06.880Z,73.20
2019-02-14T18:18:34.750Z,72.80
2019-02-14T18:21:02.604Z,74.00
2019-02-14T18:23:49.849Z,73.50
2019-02-14T18:26:17.751Z,76.30
2019-02-14T18:28:45.576Z,75.50
2019-02-14T18:31:13.424Z,75.90
2019-02-14T18:33:41.227Z,76.50
2019-02-14T18:36:09.094Z,78.00
2019-02-14T18:38:41.910Z,77.80
2019-02-14T18:41:09.743Z,77.30
2019-02-14T18:43:37.572Z,77.20
2019-02-14T18:46:05.451Z,76.30
2019-02-14T18:48:38.506Z,75.70
2019-02-14T18:51:07.152Z,75.90
2019-02-14T18:53:34.963Z,75.40
2019-02-14T18:56:04.625Z,75.50
2019-02-14T18:58:32.626Z,76.00
2019-02-14T19:01:00.448Z,77.60
2019-02-14T19:03:28.289Z,77.70
2019-02-14T19:05:56.099Z,78.10
2019-02-14T19:08:29.500Z,79.10
2019-02-14T19:10:57.362Z,78.00
2019-02-14T19:13:25.674Z,77.40
2019-02-14T19:16:14.636Z,79.00
2019-02-14T19:18:41.804Z,79.40
2019-02-14T19:21:09.869Z,78.00
2019-02-14T19:23:37.708Z,77.70
2019-02-14T19:26:05.654Z,78.70
2019-02-14T19:28:33.537Z,78.30
2019-02-14T19:31:01.420Z,77.60
2019-02-14T19:33:29.289Z,78.20
2019-02-14T19:35:57.157Z,78.50
2019-02-14T19:38:25.032Z,78.60
2019-02-14T19:40:52.833Z,78.70
2019-02-14T19:43:20.687Z,78.00
2019-02-14T19:45:48.508Z,78.80
2019-02-14T19:48:16.342Z,79.10
2019-02-14T19:50:44.230Z,78.90
2019-02-14T19:53:13.704Z,78.40
2019-02-14T19:55:41.560Z,80.40
2019-02-14T19:58:09.417Z,80.00
2019-02-14T20:00:37.337Z,79.60
2019-02-14T20:03:05.222Z,79.70
2019-02-14T20:05:33.044Z,79.70
2019-02-14T20:08:03.213Z,79.70
2019-02-14T20:10:31.039Z,79.80
2019-02-14T20:12:58.887Z,79.60
2019-02-14T20:15:26.768Z,80.10
2019-02-14T20:17:54.675Z,80.30
2019-02-14T20:20:28.445Z,79.60
2019-02-14T20:22:56.300Z,80.60
2019-02-14T20:25:24.339Z,81.20
2019-02-14T20:27:52.665Z,80.60
2019-02-14T20:30:20.551Z,80.60
2019-02-14T20:32:48.419Z,79.60
2019-02-14T20:35:16.411Z,81.10
2019-02-14T20:38:03.213Z,80.40
2019-02-14T20:40:32.095Z,79.50
2019-02-14T20:43:00.135Z,81.00
2019-02-14T20:45:29.452Z,81.40
2019-02-14T20:47:57.592Z,82.80
2019-02-14T20:50:25.401Z,81.20
2019-02-14T20:52:53.263Z,82.00
2019-02-14T20:55:21.236Z,81.60
2019-02-14T20:57:50.813Z,80.80
2019-02-14T21:00:27.677Z,81.00
2019-02-14T21:02:55.525Z,81.70
2019-02-14T21:05:23.382Z,81.40
2019-02-14T21:08:07.422Z,81.40
2019-02-14T21:10:35.199Z,81.20
2019-02-14T21:13:03.052Z,81.10
2019-02-14T21:15:30.873Z,81.20
2019-02-14T21:17:58.685Z,81.20
2019-02-14T21:20:26.602Z,82.00
2019-02-14T21:22:54.448Z,81.50
2019-02-14T21:25:23.746Z,81.60
2019-02-14T21:27:52.089Z,81.80
2019-02-14T21:30:20.059Z,82.00
2019-02-14T21:32:47.830Z,81.50
2019-02-14T21:35:15.714Z,81.70
2019-02-14T21:37:48.748Z,80.90
2019-02-14T21:40:16.634Z,82.30
2019-02-14T21:42:44.466Z,82.20
2019-02-14T21:45:12.477Z,82.80
2019-02-14T21:47:40.418Z,81.60
2019-02-14T21:50:09.474Z,81.60
2019-02-14T21:52:37.759Z,81.90
2019-02-14T21:55:06.493Z,81.70
2019-02-14T21:57:34.320Z,82.60
2019-02-14T22:00:02.229Z,82.00
2019-02-14T22:02:30.148Z,81.90
2019-02-14T22:04:57.942Z,82.10
2019-02-14T22:07:25.875Z,81.90
2019-02-14T22:09:53.800Z,81.70
2019-02-14T22:12:38.442Z,82.40
2019-02-14T22:14:51.373Z,82.10
2019-02-14T22:17:24.460Z,82.00
2019-02-14T22:19:52.302Z,81.40
2019-02-14T22:22:20.181Z,81.30
2019-02-14T22:24:47.996Z,81.50
2019-02-14T22:27:16.000Z,82.10
2019-02-14T22:29:44.219Z,81.90
2019-02-14T22:32:12.129Z,82.30
2019-02-14T22:34:39.897Z,82.60
2019-02-14T22:37:17.829Z,82.40
2019-02-14T22:39:45.648Z,82.10
2019-02-14T22:42:13.550Z,81.90
2019-02-14T22:44:41.325Z,82.40
2019-02-14T22:47:09.160Z,82.10
2019-02-14T22:49:37.039Z,82.00
2019-02-14T22:52:04.834Z,82.10
2019-02-14T22:54:32.663Z,82.80
2019-02-14T22:57:05.755Z,85.70
2019-02-14T22:59:34.097Z,85.30
2019-02-14T23:02:02.529Z,85.00
2019-02-14T23:04:30.397Z,85.30
2019-02-14T23:06:58.253Z,85.80
2019-02-14T23:09:26.114Z,87.60
2019-02-14T23:11:53.952Z,87.50
2019-02-14T23:14:21.778Z,87.80
2019-02-14T23:16:49.673Z,86.90
2019-02-14T23:19:17.476Z,85.80
2019-02-14T23:21:45.373Z,85.30
2019-02-14T23:24:13.212Z,85.00
2019-02-14T23:26:41.025Z,85.50
2019-02-14T23:29:08.858Z,85.20
2019-02-14T23:31:36.731Z,85.50
2019-02-14T23:34:04.461Z,85.90
2019-02-14T23:36:32.800Z,86.40
2019-02-14T23:39:00.589Z,86.50
2019-02-14T23:41:28.409Z,85.40
2019-02-14T23:43:56.203Z,84.50
2019-02-14T23:46:24.033Z,85.20
2019-02-14T23:48:51.832Z,85.00
2019-02-14T23:51:19.779Z,84.50
2019-02-14T23:53:47.558Z,84.50
2019-02-14T23:56:15.405Z,83.80
2019-02-14T23:58:44.396Z,83.70
